sensor_id;sensor_type;location;lat;lon;timestamp;pressure;altitude;pressure_sealevel;temperature;humidity
58690;BME280;44470;53.206;-6.106;2023-01-26T00:01:22;103504.09;;;19.24;54.56
58690;BME280;44470;53.206;-6.106;2023-01-26T00:03:49;103511.22;;;19.23;54.33
58690;BME280;44470;53.206;-6.106;2023-01-26T00:06:17;103519.19;;;19.22;54.29
58690;BME280;44470;53.206;-6.106;2023-01-26T00:08:45;103519.25;;;19.23;54.30
58690;BME280;44470;53.206;-6.106;2023-01-26T00:11:13;103524.56;;;19.23;54.26
58690;BME280;44470;53.206;-6.106;2023-01-26T00:13:40;103518.31;;;19.23;54.27
58690;BME280;44470;53.206;-6.106;2023-01-26T00:16:11;103509.41;;;19.22;54.04
58690;BME280;44470;53.206;-6.106;2023-01-26T00:18:38;103510.38;;;19.24;54.07
58690;BME280;44470;53.206;-6.106;2023-01-26T00:21:05;103505.03;;;19.24;54.33
58690;BME280;44470;53.206;-6.106;2023-01-26T00:23:31;103506.78;;;19.24;54.11
58690;BME280;44470;53.206;-6.106;2023-01-26T00:25:59;103499.69;;;19.24;54.09
58690;BME280;44470;53.206;-6.106;2023-01-26T00:28:24;103512.16;;;19.25;54.35
58690;BME280;44470;53.206;-6.106;2023-01-26T00:30:51;103499.69;;;19.24;54.43
58690;BME280;44470;53.206;-6.106;2023-01-26T00:33:16;103502.38;;;19.26;54.26
58690;BME280;44470;53.206;-6.106;2023-01-26T00:35:42;103506.84;;;19.25;54.07
58690;BME280;44470;53.206;-6.106;2023-01-26T00:38:11;103499.72;;;19.26;54.32
58690;BME280;44470;53.206;-6.106;2023-01-26T00:40:37;103508.66;;;19.28;54.19
58690;BME280;44470;53.206;-6.106;2023-01-26T00:43:03;103511.31;;;19.26;54.16
58690;BME280;44470;53.206;-6.106;2023-01-26T00:45:28;103505.97;;;19.26;54.19
58690;BME280;44470;53.206;-6.106;2023-01-26T00:47:54;103505.97;;;19.26;54.42
58690;BME280;44470;53.206;-6.106;2023-01-26T00:50:19;103497.97;;;19.26;54.04
58690;BME280;44470;53.206;-6.106;2023-01-26T00:52:45;103502.44;;;19.27;54.05
58690;BME280;44470;53.206;-6.106;2023-01-26T00:55:10;103515.78;;;19.27;54.17
58690;BME280;44470;53.206;-6.106;2023-01-26T00:57:42;103506.91;;;19.28;53.98
58690;BME280;44470;53.206;-6.106;2023-01-26T01:00:08;103506.00;;;19.28;54.35
58690;BME280;44470;53.206;-6.106;2023-01-26T01:02:40;103508.72;;;19.29;54.10
58690;BME280;44470;53.206;-6.106;2023-01-26T01:05:06;103492.69;;;19.29;54.24
58690;BME280;44470;53.206;-6.106;2023-01-26T01:07:31;103501.56;;;19.28;54.41
58690;BME280;44470;53.206;-6.106;2023-01-26T01:09:58;103499.84;;;19.30;54.24
58690;BME280;44470;53.206;-6.106;2023-01-26T01:12:25;103501.66;;;19.31;54.22
58690;BME280;44470;53.206;-6.106;2023-01-26T01:14:53;103494.50;;;19.30;54.21
58690;BME280;44470;53.206;-6.106;2023-01-26T01:17:19;103486.50;;;19.32;54.12
58690;BME280;44470;53.206;-6.106;2023-01-26T01:19:44;103484.72;;;19.31;54.38
58690;BME280;44470;53.206;-6.106;2023-01-26T01:22:11;103488.31;;;19.33;53.91
58690;BME280;44470;53.206;-6.106;2023-01-26T01:24:36;103502.59;;;19.34;54.21
58690;BME280;44470;53.206;-6.106;2023-01-26T01:27:03;103499.94;;;19.34;54.13
58690;BME280;44470;53.206;-6.106;2023-01-26T01:29:29;103504.41;;;19.35;53.97
58690;BME280;44470;53.206;-6.106;2023-01-26T01:31:54;103495.47;;;19.34;54.50
58690;BME280;44470;53.206;-6.106;2023-01-26T01:34:20;103494.59;;;19.34;54.29
58690;BME280;44470;53.206;-6.106;2023-01-26T01:36:45;103482.97;;;19.33;54.46
58690;BME280;44470;53.206;-6.106;2023-01-26T01:39:11;103472.34;;;19.35;54.12
58690;BME280;44470;53.206;-6.106;2023-01-26T01:41:37;103466.16;;;19.36;53.90
58690;BME280;44470;53.206;-6.106;2023-01-26T01:47:18;103468.88;;;19.37;53.97
58690;BME280;44470;53.206;-6.106;2023-01-26T01:49:49;103482.22;;;19.37;54.04
58690;BME280;44470;53.206;-6.106;2023-01-26T01:52:26;103483.13;;;19.38;54.16
58690;BME280;44470;53.206;-6.106;2023-01-26T01:54:56;103481.38;;;19.38;54.03
58690;BME280;44470;53.206;-6.106;2023-01-26T01:57:26;103475.09;;;19.38;54.02
58690;BME280;44470;53.206;-6.106;2023-01-26T02:00:05;103465.28;;;19.37;54.25
58690;BME280;44470;53.206;-6.106;2023-01-26T02:02:38;103460.88;;;19.39;54.19
58690;BME280;44470;53.206;-6.106;2023-01-26T02:05:13;103463.63;;;19.40;53.89
58690;BME280;44470;53.206;-6.106;2023-01-26T02:07:44;103460.88;;;19.39;54.08
58690;BME280;44470;53.206;-6.106;2023-01-26T02:10:10;103463.56;;;19.39;54.01
58690;BME280;44470;53.206;-6.106;2023-01-26T02:12:46;103480.50;;;19.39;54.18
58690;BME280;44470;53.206;-6.106;2023-01-26T02:15:14;103493.88;;;19.41;53.90
58690;BME280;44470;53.206;-6.106;2023-01-26T02:17:41;103488.53;;;19.41;53.92
58690;BME280;44470;53.206;-6.106;2023-01-26T02:20:19;103483.25;;;19.42;53.96
58690;BME280;44470;53.206;-6.106;2023-01-26T02:22:57;103486.72;;;19.40;54.16
58690;BME280;44470;53.206;-6.106;2023-01-26T02:25:36;103493.97;;;19.44;53.88
58690;BME280;44470;53.206;-6.106;2023-01-26T02:28:04;103503.75;;;19.43;54.10
58690;BME280;44470;53.206;-6.106;2023-01-26T02:30:31;103507.28;;;19.42;54.20
58690;BME280;44470;53.206;-6.106;2023-01-26T02:32:56;103493.00;;;19.42;53.91
58690;BME280;44470;53.206;-6.106;2023-01-26T02:35:22;103509.97;;;19.42;54.22
58690;BME280;44470;53.206;-6.106;2023-01-26T02:37:48;103509.03;;;19.42;54.14
58690;BME280;44470;53.206;-6.106;2023-01-26T02:40:35;103506.44;;;19.43;53.95
58690;BME280;44470;53.206;-6.106;2023-01-26T02:43:02;103496.59;;;19.42;53.96
58690;BME280;44470;53.206;-6.106;2023-01-26T02:45:29;103496.63;;;19.44;53.84
58690;BME280;44470;53.206;-6.106;2023-01-26T02:47:55;103487.72;;;19.43;53.79
58690;BME280;44470;53.206;-6.106;2023-01-26T02:50:22;103480.59;;;19.44;53.93
58690;BME280;44470;53.206;-6.106;2023-01-26T02:52:48;103492.16;;;19.43;53.70
58690;BME280;44470;53.206;-6.106;2023-01-26T02:55:16;103493.00;;;19.42;54.14
58690;BME280;44470;53.206;-6.106;2023-01-26T02:57:58;103495.75;;;19.43;54.01
58690;BME280;44470;53.206;-6.106;2023-01-26T03:00:32;103496.69;;;19.45;53.71
58690;BME280;44470;53.206;-6.106;2023-01-26T03:03:08;103500.25;;;19.46;53.75
58690;BME280;44470;53.206;-6.106;2023-01-26T03:05:36;103500.25;;;19.46;53.79
58690;BME280;44470;53.206;-6.106;2023-01-26T03:08:01;103504.69;;;19.45;54.04
58690;BME280;44470;53.206;-6.106;2023-01-26T03:10:34;103501.97;;;19.44;53.78
58690;BME280;44470;53.206;-6.106;2023-01-26T03:12:59;103515.38;;;19.45;53.85
58690;BME280;44470;53.206;-6.106;2023-01-26T03:15:26;103515.38;;;19.45;53.84
58690;BME280;44470;53.206;-6.106;2023-01-26T03:18:13;103520.75;;;19.47;53.51
58690;BME280;44470;53.206;-6.106;2023-01-26T03:20:59;103530.47;;;19.45;53.83
58690;BME280;44470;53.206;-6.106;2023-01-26T03:23:44;103533.16;;;19.45;53.92
58690;BME280;44470;53.206;-6.106;2023-01-26T03:26:28;103521.59;;;19.46;53.77
58690;BME280;44470;53.206;-6.106;2023-01-26T03:29:14;103521.59;;;19.46;53.76
58690;BME280;44470;53.206;-6.106;2023-01-26T03:31:41;103518.06;;;19.45;53.92
58690;BME280;44470;53.206;-6.106;2023-01-26T03:34:07;103520.72;;;19.45;53.88
58690;BME280;44470;53.206;-6.106;2023-01-26T03:36:33;103522.47;;;19.45;53.97
58690;BME280;44470;53.206;-6.106;2023-01-26T03:39:03;103530.47;;;19.43;53.90
58690;BME280;44470;53.206;-6.106;2023-01-26T03:41:29;103530.47;;;19.45;54.11
58690;BME280;44470;53.206;-6.106;2023-01-26T03:44:13;103533.22;;;19.46;53.87
58690;BME280;44470;53.206;-6.106;2023-01-26T03:46:57;103525.19;;;19.46;53.72
58690;BME280;44470;53.206;-6.106;2023-01-26T03:49:42;103504.63;;;19.42;53.91
58690;BME280;44470;53.206;-6.106;2023-01-26T03:52:26;103493.16;;;19.48;53.85
58690;BME280;44470;53.206;-6.106;2023-01-26T03:55:10;103495.75;;;19.45;53.89
58690;BME280;44470;53.206;-6.106;2023-01-26T03:57:54;103503.78;;;19.45;54.06
58690;BME280;44470;53.206;-6.106;2023-01-26T04:00:20;103512.72;;;19.47;53.82
58690;BME280;44470;53.206;-6.106;2023-01-26T04:02:48;103517.19;;;19.46;53.75
58690;BME280;44470;53.206;-6.106;2023-01-26T04:05:33;103518.06;;;19.47;53.66
58690;BME280;44470;53.206;-6.106;2023-01-26T04:08:18;103523.41;;;19.47;53.50
58690;BME280;44470;53.206;-6.106;2023-01-26T04:10:56;103517.13;;;19.45;53.76
58690;BME280;44470;53.206;-6.106;2023-01-26T04:13:23;103513.66;;;19.48;53.94
58690;BME280;44470;53.206;-6.106;2023-01-26T04:16:10;103512.78;;;19.49;53.67
58690;BME280;44470;53.206;-6.106;2023-01-26T04:18:54;103502.91;;;19.46;53.57
58690;BME280;44470;53.206;-6.106;2023-01-26T04:21:39;103510.97;;;19.48;53.45
58690;BME280;44470;53.206;-6.106;2023-01-26T04:24:12;103503.78;;;19.45;53.55
58690;BME280;44470;53.206;-6.106;2023-01-26T04:26:41;103503.00;;;19.49;53.30
58690;BME280;44470;53.206;-6.106;2023-01-26T04:29:12;103512.72;;;19.47;53.68
58690;BME280;44470;53.206;-6.106;2023-01-26T04:31:40;103518.06;;;19.47;53.79
58690;BME280;44470;53.206;-6.106;2023-01-26T04:34:10;103521.59;;;19.46;53.68
58690;BME280;44470;53.206;-6.106;2023-01-26T04:36:36;103527.91;;;19.48;53.15
58690;BME280;44470;53.206;-6.106;2023-01-26T04:39:02;103536.84;;;19.50;53.70
58690;BME280;44470;53.206;-6.106;2023-01-26T04:41:29;103535.91;;;19.48;53.65
58690;BME280;44470;53.206;-6.106;2023-01-26T04:44:05;103535.03;;;19.49;53.30
58690;BME280;44470;53.206;-6.106;2023-01-26T04:46:31;103528.81;;;19.49;53.41
58690;BME280;44470;53.206;-6.106;2023-01-26T04:48:57;103530.56;;;19.48;53.29
58690;BME280;44470;53.206;-6.106;2023-01-26T04:51:23;103536.78;;;19.47;53.56
58690;BME280;44470;53.206;-6.106;2023-01-26T04:53:49;103533.16;;;19.45;53.33
58690;BME280;44470;53.206;-6.106;2023-01-26T04:56:25;103537.63;;;19.46;53.36
58690;BME280;44470;53.206;-6.106;2023-01-26T04:58:52;103534.09;;;19.47;53.13
58690;BME280;44470;53.206;-6.106;2023-01-26T05:01:19;103536.78;;;19.47;53.42
58690;BME280;44470;53.206;-6.106;2023-01-26T05:03:45;103535.03;;;19.48;53.09
58690;BME280;44470;53.206;-6.106;2023-01-26T05:06:11;103540.38;;;19.48;53.48
58690;BME280;44470;53.206;-6.106;2023-01-26T05:08:37;103551.00;;;19.46;53.29
58690;BME280;44470;53.206;-6.106;2023-01-26T05:11:03;103557.28;;;19.48;53.52
58690;BME280;44470;53.206;-6.106;2023-01-26T05:13:58;103549.25;;;19.48;53.11
58690;BME280;44470;53.206;-6.106;2023-01-26T05:16:34;103550.13;;;19.47;53.36
58690;BME280;44470;53.206;-6.106;2023-01-26T05:18:59;103559.09;;;19.49;53.34
58690;BME280;44470;53.206;-6.106;2023-01-26T05:21:39;103558.13;;;19.47;53.56
58690;BME280;44470;53.206;-6.106;2023-01-26T05:24:05;103560.81;;;19.47;53.52
58690;BME280;44470;53.206;-6.106;2023-01-26T05:27:02;103559.94;;;19.48;53.21
58690;BME280;44470;53.206;-6.106;2023-01-26T05:29:50;103556.38;;;19.48;52.94
58690;BME280;44470;53.206;-6.106;2023-01-26T05:32:17;103552.81;;;19.47;53.20
58690;BME280;44470;53.206;-6.106;2023-01-26T05:34:43;103552.00;;;19.50;53.33
58690;BME280;44470;53.206;-6.106;2023-01-26T05:37:09;103554.59;;;19.46;53.17
58690;BME280;44470;53.206;-6.106;2023-01-26T05:39:37;103557.34;;;19.50;53.36
58690;BME280;44470;53.206;-6.106;2023-01-26T05:42:05;103560.88;;;19.49;53.06
58690;BME280;44470;53.206;-6.106;2023-01-26T05:44:49;103553.75;;;19.49;52.89
58690;BME280;44470;53.206;-6.106;2023-01-26T05:47:15;103551.94;;;19.48;53.35
58690;BME280;44470;53.206;-6.106;2023-01-26T05:49:44;103551.94;;;19.48;53.42
58690;BME280;44470;53.206;-6.106;2023-01-26T05:52:17;103551.94;;;19.48;53.18
58690;BME280;44470;53.206;-6.106;2023-01-26T05:54:43;103544.78;;;19.47;53.19
58690;BME280;44470;53.206;-6.106;2023-01-26T05:57:09;103551.03;;;19.48;53.39
58690;BME280;44470;53.206;-6.106;2023-01-26T05:59:39;103546.59;;;19.48;53.27
58690;BME280;44470;53.206;-6.106;2023-01-26T06:02:06;103539.53;;;19.50;53.28
58690;BME280;44470;53.206;-6.106;2023-01-26T06:04:34;103544.88;;;19.50;53.13
58690;BME280;44470;53.206;-6.106;2023-01-26T06:07:00;103541.34;;;19.51;53.02
58690;BME280;44470;53.206;-6.106;2023-01-26T06:09:35;103538.63;;;19.50;52.82
58690;BME280;44470;53.206;-6.106;2023-01-26T06:12:22;103538.63;;;19.50;52.79
58690;BME280;44470;53.206;-6.106;2023-01-26T06:14:50;103540.44;;;19.51;52.87
58690;BME280;44470;53.206;-6.106;2023-01-26T06:17:17;103554.69;;;19.51;53.04
58690;BME280;44470;53.206;-6.106;2023-01-26T06:19:43;103564.44;;;19.49;53.23
58690;BME280;44470;53.206;-6.106;2023-01-26T06:22:11;103560.81;;;19.47;53.12
58690;BME280;44470;53.206;-6.106;2023-01-26T06:24:41;103564.50;;;19.52;52.79
58690;BME280;44470;53.206;-6.106;2023-01-26T06:27:11;103561.81;;;19.51;53.07
58690;BME280;44470;53.206;-6.106;2023-01-26T06:29:37;103563.53;;;19.49;53.12
58690;BME280;44470;53.206;-6.106;2023-01-26T06:32:03;103560.88;;;19.50;52.96
58690;BME280;44470;53.206;-6.106;2023-01-26T06:34:28;103552.88;;;19.50;53.20
58690;BME280;44470;53.206;-6.106;2023-01-26T06:36:54;103547.53;;;19.50;52.88
58690;BME280;44470;53.206;-6.106;2023-01-26T06:39:26;103551.06;;;19.49;53.27
58690;BME280;44470;53.206;-6.106;2023-01-26T06:41:52;103552.00;;;19.51;52.89
58690;BME280;44470;53.206;-6.106;2023-01-26T06:44:17;103547.59;;;19.52;53.02
58690;BME280;44470;53.206;-6.106;2023-01-26T06:46:55;103536.00;;;19.51;53.25
58690;BME280;44470;53.206;-6.106;2023-01-26T06:49:22;103542.19;;;19.50;52.92
58690;BME280;44470;53.206;-6.106;2023-01-26T06:54:22;103545.78;;;19.51;52.74
58690;BME280;44470;53.206;-6.106;2023-01-26T06:57:07;103554.75;;;19.53;53.02
58690;BME280;44470;53.206;-6.106;2023-01-26T07:00:02;103558.28;;;19.52;52.91
58690;BME280;44470;53.206;-6.106;2023-01-26T07:02:46;103563.63;;;19.52;52.97
58690;BME280;44470;53.206;-6.106;2023-01-26T07:05:12;103565.38;;;19.51;52.81
58690;BME280;44470;53.206;-6.106;2023-01-26T07:07:37;103566.28;;;19.52;53.12
58690;BME280;44470;53.206;-6.106;2023-01-26T07:10:03;103573.38;;;19.51;52.95
58690;BME280;44470;53.206;-6.106;2023-01-26T07:12:44;103577.88;;;19.52;52.95
58690;BME280;44470;53.206;-6.106;2023-01-26T07:15:10;103586.78;;;19.53;53.17
58690;BME280;44470;53.206;-6.106;2023-01-26T07:17:38;103591.13;;;19.49;52.83
58690;BME280;44470;53.206;-6.106;2023-01-26T07:20:04;103590.34;;;19.53;52.73
58690;BME280;44470;53.206;-6.106;2023-01-26T07:22:29;103594.75;;;19.51;52.57
58690;BME280;44470;53.206;-6.106;2023-01-26T07:24:55;103602.78;;;19.51;52.87
58690;BME280;44470;53.206;-6.106;2023-01-26T07:27:20;103597.44;;;19.51;52.81
58690;BME280;44470;53.206;-6.106;2023-01-26T07:29:46;103597.47;;;19.53;52.78
58690;BME280;44470;53.206;-6.106;2023-01-26T07:32:11;103600.19;;;19.54;52.67
58690;BME280;44470;53.206;-6.106;2023-01-26T07:34:37;103609.97;;;19.54;52.48
58690;BME280;44470;53.206;-6.106;2023-01-26T07:37:03;103616.13;;;19.51;52.68
58690;BME280;44470;53.206;-6.106;2023-01-26T07:39:29;103609.91;;;19.52;52.51
58690;BME280;44470;53.206;-6.106;2023-01-26T07:41:55;103612.59;;;19.52;52.63
58690;BME280;44470;53.206;-6.106;2023-01-26T07:44:34;103611.72;;;19.53;52.54
58690;BME280;44470;53.206;-6.106;2023-01-26T07:46:59;103605.44;;;19.51;52.53
58690;BME280;44470;53.206;-6.106;2023-01-26T07:49:25;103609.91;;;19.51;52.68
58690;BME280;44470;53.206;-6.106;2023-01-26T07:51:50;103609.06;;;19.53;52.81
58690;BME280;44470;53.206;-6.106;2023-01-26T07:54:16;103610.88;;;19.54;52.62
58690;BME280;44470;53.206;-6.106;2023-01-26T07:56:42;103601.88;;;19.51;52.40
58690;BME280;44470;53.206;-6.106;2023-01-26T07:59:10;103599.22;;;19.51;52.62
58690;BME280;44470;53.206;-6.106;2023-01-26T08:01:35;103581.47;;;19.53;52.43
58690;BME280;44470;53.206;-6.106;2023-01-26T08:04:00;103596.63;;;19.54;52.41
58690;BME280;44470;53.206;-6.106;2023-01-26T08:06:26;103599.28;;;19.54;52.27
58690;BME280;44470;53.206;-6.106;2023-01-26T08:08:52;103596.53;;;19.51;51.81
58690;BME280;44470;53.206;-6.106;2023-01-26T08:11:20;103593.03;;;19.53;51.65
58690;BME280;44470;53.206;-6.106;2023-01-26T08:13:48;103591.22;;;19.52;51.84
58690;BME280;44470;53.206;-6.106;2023-01-26T08:16:13;103597.44;;;19.51;51.30
58690;BME280;44470;53.206;-6.106;2023-01-26T08:18:41;103603.72;;;19.53;51.50
58690;BME280;44470;53.206;-6.106;2023-01-26T08:21:07;103600.19;;;19.54;51.61
58690;BME280;44470;53.206;-6.106;2023-01-26T08:23:33;103599.28;;;19.54;51.31
58690;BME280;44470;53.206;-6.106;2023-01-26T08:26:04;103609.06;;;19.53;51.41
58690;BME280;44470;53.206;-6.106;2023-01-26T08:28:29;103613.50;;;19.53;51.54
58690;BME280;44470;53.206;-6.106;2023-01-26T08:30:55;103605.44;;;19.51;51.62
58690;BME280;44470;53.206;-6.106;2023-01-26T08:33:22;103605.50;;;19.53;51.47
58690;BME280;44470;53.206;-6.106;2023-01-26T08:35:47;103602.84;;;19.54;50.87
58690;BME280;44470;53.206;-6.106;2023-01-26T08:38:13;103612.69;;;19.55;51.59
58690;BME280;44470;53.206;-6.106;2023-01-26T08:40:38;103606.44;;;19.55;51.30
58690;BME280;44470;53.206;-6.106;2023-01-26T08:43:04;103625.16;;;19.56;50.99
58690;BME280;44470;53.206;-6.106;2023-01-26T08:45:30;103626.03;;;19.55;51.45
58690;BME280;44470;53.206;-6.106;2023-01-26T08:47:56;103626.97;;;19.57;51.77
58690;BME280;44470;53.206;-6.106;2023-01-26T08:50:23;103631.44;;;19.57;52.00
58690;BME280;44470;53.206;-6.106;2023-01-26T08:52:49;103634.13;;;19.58;51.92
58690;BME280;44470;53.206;-6.106;2023-01-26T08:55:14;103634.13;;;19.58;51.86
58690;BME280;44470;53.206;-6.106;2023-01-26T08:57:40;103636.84;;;19.60;52.07
58690;BME280;44470;53.206;-6.106;2023-01-26T09:00:06;103633.19;;;19.56;52.03
58690;BME280;44470;53.206;-6.106;2023-01-26T09:02:32;103623.44;;;19.58;52.03
58690;BME280;44470;53.206;-6.106;2023-01-26T09:04:57;103631.44;;;19.57;51.82
58690;BME280;44470;53.206;-6.106;2023-01-26T09:07:23;103627.03;;;19.59;52.32
58690;BME280;44470;53.206;-6.106;2023-01-26T09:09:48;103632.41;;;19.60;52.60
58690;BME280;44470;53.206;-6.106;2023-01-26T09:12:14;103632.38;;;19.59;52.18
58690;BME280;44470;53.206;-6.106;2023-01-26T09:14:39;103636.78;;;19.57;52.28
58690;BME280;44470;53.206;-6.106;2023-01-26T09:17:06;103640.41;;;19.60;52.60
58690;BME280;44470;53.206;-6.106;2023-01-26T09:19:31;103648.56;;;19.64;52.14
58690;BME280;44470;53.206;-6.106;2023-01-26T09:21:57;103647.56;;;19.61;52.42
58690;BME280;44470;53.206;-6.106;2023-01-26T09:24:22;103651.16;;;19.62;52.30
58690;BME280;44470;53.206;-6.106;2023-01-26T09:26:48;103636.84;;;19.60;52.38
58690;BME280;44470;53.206;-6.106;2023-01-26T09:29:14;103648.56;;;19.64;52.42
58690;BME280;44470;53.206;-6.106;2023-01-26T09:31:40;103663.66;;;19.63;52.33
58690;BME280;44470;53.206;-6.106;2023-01-26T09:34:06;103653.91;;;19.64;52.40
58690;BME280;44470;53.206;-6.106;2023-01-26T09:36:31;103665.44;;;19.63;52.49
58690;BME280;44470;53.206;-6.106;2023-01-26T09:38:57;103667.25;;;19.64;52.31
58690;BME280;44470;53.206;-6.106;2023-01-26T09:44:08;103675.28;;;19.64;52.30
58690;BME280;44470;53.206;-6.106;2023-01-26T09:46:47;103685.97;;;19.65;52.39
58690;BME280;44470;53.206;-6.106;2023-01-26T09:49:38;103675.28;;;19.65;52.53
58690;BME280;44470;53.206;-6.106;2023-01-26T09:55:14;103680.69;;;19.67;52.26
58690;BME280;44470;53.206;-6.106;2023-01-26T09:57:59;103673.53;;;19.66;52.12
58690;BME280;44470;53.206;-6.106;2023-01-26T10:00:38;103677.06;;;19.65;52.33
58690;BME280;44470;53.206;-6.106;2023-01-26T10:09:07;103690.44;;;19.65;52.14
58690;BME280;44470;53.206;-6.106;2023-01-26T10:11:39;103691.38;;;19.67;52.35
58690;BME280;44470;53.206;-6.106;2023-01-26T10:14:32;103688.63;;;19.64;52.13
58690;BME280;44470;53.206;-6.106;2023-01-26T10:17:02;103691.31;;;19.65;52.36
58690;BME280;44470;53.206;-6.106;2023-01-26T10:19:36;103704.78;;;19.68;52.47
58690;BME280;44470;53.206;-6.106;2023-01-26T10:22:22;103699.44;;;19.68;52.38
58690;BME280;44470;53.206;-6.106;2023-01-26T10:24:50;103705.63;;;19.67;52.33
58690;BME280;44470;53.206;-6.106;2023-01-26T10:27:17;103698.53;;;19.68;52.22
58690;BME280;44470;53.206;-6.106;2023-01-26T10:29:43;103689.66;;;19.69;52.11
58690;BME280;44470;53.206;-6.106;2023-01-26T10:32:13;103695.88;;;19.68;52.37
58690;BME280;44470;53.206;-6.106;2023-01-26T10:34:39;103693.19;;;19.68;52.35
58690;BME280;44470;53.206;-6.106;2023-01-26T10:37:22;103695.88;;;19.68;52.25
58690;BME280;44470;53.206;-6.106;2023-01-26T10:40:01;103687.84;;;19.68;52.32
58690;BME280;44470;53.206;-6.106;2023-01-26T10:42:32;103695.03;;;19.70;51.95
58690;BME280;44470;53.206;-6.106;2023-01-26T10:45:00;103693.28;;;19.71;52.27
58690;BME280;44470;53.206;-6.106;2023-01-26T10:47:26;103704.84;;;19.71;52.30
58690;BME280;44470;53.206;-6.106;2023-01-26T10:50:14;103711.13;;;19.72;52.13
58690;BME280;44470;53.206;-6.106;2023-01-26T10:52:56;103711.03;;;19.69;52.37
58690;BME280;44470;53.206;-6.106;2023-01-26T10:55:21;103703.97;;;19.71;52.13
58690;BME280;44470;53.206;-6.106;2023-01-26T10:57:47;103705.69;;;19.69;51.97
58690;BME280;44470;53.206;-6.106;2023-01-26T11:02:58;103709.31;;;19.71;52.44
58690;BME280;44470;53.206;-6.106;2023-01-26T11:05:26;103714.66;;;19.71;52.29
58690;BME280;44470;53.206;-6.106;2023-01-26T11:07:53;103720.94;;;19.73;52.28
58690;BME280;44470;53.206;-6.106;2023-01-26T11:10:30;103715.59;;;19.73;52.40
58690;BME280;44470;53.206;-6.106;2023-01-26T11:13:16;103713.78;;;19.72;52.13
58690;BME280;44470;53.206;-6.106;2023-01-26T11:15:48;103714.75;;;19.74;52.03
58690;BME280;44470;53.206;-6.106;2023-01-26T11:21:05;103720.09;;;19.74;52.03
58690;BME280;44470;53.206;-6.106;2023-01-26T11:26:31;103704.91;;;19.73;52.01
58690;BME280;44470;53.206;-6.106;2023-01-26T11:37:45;103710.34;;;19.76;52.17
58690;BME280;44470;53.206;-6.106;2023-01-26T11:40:49;103706.75;;;19.75;52.35
58690;BME280;44470;53.206;-6.106;2023-01-26T11:52:10;103700.59;;;19.78;52.45
58690;BME280;44470;53.206;-6.106;2023-01-26T11:55:09;103702.31;;;19.76;52.17
58690;BME280;44470;53.206;-6.106;2023-01-26T12:00:40;103699.69;;;19.78;51.92
58690;BME280;44470;53.206;-6.106;2023-01-26T12:03:16;103693.44;;;19.77;52.01
58690;BME280;44470;53.206;-6.106;2023-01-26T12:05:49;103702.31;;;19.76;51.97
58690;BME280;44470;53.206;-6.106;2023-01-26T12:08:26;103682.75;;;19.77;52.05
58690;BME280;44470;53.206;-6.106;2023-01-26T12:14:04;103690.81;;;19.79;52.08
58690;BME280;44470;53.206;-6.106;2023-01-26T12:21:42;103691.63;;;19.76;52.32
58690;BME280;44470;53.206;-6.106;2023-01-26T12:24:09;103691.66;;;19.78;51.96
58690;BME280;44470;53.206;-6.106;2023-01-26T12:26:42;103698.78;;;19.77;51.74
58690;BME280;44470;53.206;-6.106;2023-01-26T12:31:57;103689.91;;;19.78;51.92
58690;BME280;44470;53.206;-6.106;2023-01-26T12:34:31;103675.69;;;19.79;52.04
58690;BME280;44470;53.206;-6.106;2023-01-26T12:40:24;103678.31;;;19.78;51.97
58690;BME280;44470;53.206;-6.106;2023-01-26T12:46:07;103673.09;;;19.82;51.80
58690;BME280;44470;53.206;-6.106;2023-01-26T12:48:45;103664.16;;;19.82;52.09
58690;BME280;44470;53.206;-6.106;2023-01-26T12:51:26;103665.06;;;19.82;52.02
58690;BME280;44470;53.206;-6.106;2023-01-26T12:53:57;103665.06;;;19.82;51.96
58690;BME280;44470;53.206;-6.106;2023-01-26T12:58:57;103661.47;;;19.80;52.03
58690;BME280;44470;53.206;-6.106;2023-01-26T13:01:26;103650.84;;;19.83;52.16
58690;BME280;44470;53.206;-6.106;2023-01-26T13:04:10;103634.84;;;19.85;52.07
58690;BME280;44470;53.206;-6.106;2023-01-26T13:06:36;103647.31;;;19.84;52.36
58690;BME280;44470;53.206;-6.106;2023-01-26T13:16:52;103616.19;;;19.86;52.07
58690;BME280;44470;53.206;-6.106;2023-01-26T13:22:00;103620.59;;;19.86;52.13
58690;BME280;44470;53.206;-6.106;2023-01-26T13:26:57;103610.84;;;19.88;52.34
58690;BME280;44470;53.206;-6.106;2023-01-26T13:34:26;103600.16;;;19.86;52.16
58690;BME280;44470;53.206;-6.106;2023-01-26T13:36:55;103595.75;;;19.88;52.41
58690;BME280;44470;53.206;-6.106;2023-01-26T13:39:30;103592.13;;;19.86;52.17
58690;BME280;44470;53.206;-6.106;2023-01-26T13:41:56;103593.03;;;19.87;52.38
58690;BME280;44470;53.206;-6.106;2023-01-26T13:44:33;103597.50;;;19.88;52.01
58690;BME280;44470;53.206;-6.106;2023-01-26T13:47:10;103598.41;;;19.88;52.23
58690;BME280;44470;53.206;-6.106;2023-01-26T13:49:40;103595.75;;;19.88;52.21
58690;BME280;44470;53.206;-6.106;2023-01-26T13:52:20;103589.53;;;19.89;52.02
58690;BME280;44470;53.206;-6.106;2023-01-26T13:54:48;103594.00;;;19.89;52.24
58690;BME280;44470;53.206;-6.106;2023-01-26T13:57:26;103595.75;;;19.88;52.25
58690;BME280;44470;53.206;-6.106;2023-01-26T13:59:58;103597.56;;;19.89;52.43
58690;BME280;44470;53.206;-6.106;2023-01-26T14:02:32;103594.06;;;19.91;52.25
58690;BME280;44470;53.206;-6.106;2023-01-26T14:04:59;103590.50;;;19.92;52.08
58690;BME280;44470;53.206;-6.106;2023-01-26T14:07:35;103587.84;;;19.92;52.25
58690;BME280;44470;53.206;-6.106;2023-01-26T14:10:03;103595.84;;;19.92;52.34
58690;BME280;44470;53.206;-6.106;2023-01-26T14:12:33;103586.97;;;19.93;52.42
58690;BME280;44470;53.206;-6.106;2023-01-26T14:15:03;103591.44;;;19.92;52.48
58690;BME280;44470;53.206;-6.106;2023-01-26T14:17:51;103588.78;;;19.94;52.38
58690;BME280;44470;53.206;-6.106;2023-01-26T14:25:48;103582.56;;;19.95;52.41
58690;BME280;44470;53.206;-6.106;2023-01-26T14:28:21;103587.03;;;19.96;52.47